Time;durP1;ratioP1;P1;durP2;ratioP2;P2;SDS_P1;SDS_P2;PMS_P1;PMS_P2;Temp;Humidity;BMP_temperature;BMP_pressure;BME280_temperature;BME280_humidity;BME280_pressure;Samples;Min_cycle;Max_cycle;Signal;HPM_P1;HPM_P2
2023/03/04 00:00:42;;;;;;;24.53;2.13;;;5.20;99.90;;;;;;4987193;28;20061;-71
2023/03/04 00:03:09;;;;;;;13.27;1.63;;;5.20;99.90;;;;;;4982715;28;20049;-71
2023/03/04 00:05:37;;;;;;;12.35;1.50;;;5.20;99.90;;;;;;4996682;28;20450;-71
2023/03/04 00:08:03;;;;;;;17.60;2.08;;;5.20;99.90;;;;;;5008615;28;20049;-71
2023/03/04 00:10:29;;;;;;;12.95;2.65;;;5.20;99.90;;;;;;4997599;28;20048;-71
2023/03/04 00:12:54;;;;;;;13.93;2.27;;;5.20;99.90;;;;;;5020129;28;20493;-71
2023/03/04 00:15:20;;;;;;;13.40;1.63;;;5.30;99.90;;;;;;4990919;28;20073;-71
2023/03/04 00:17:46;;;;;;;20.07;2.50;;;5.20;99.90;;;;;;5001711;28;20042;-71
2023/03/04 00:20:12;;;;;;;15.03;2.13;;;5.20;99.90;;;;;;4984871;28;20038;-71
2023/03/04 00:22:38;;;;;;;10.43;1.27;;;5.20;99.90;;;;;;5011712;28;20041;-71
2023/03/04 00:25:04;;;;;;;15.13;1.40;;;5.20;99.90;;;;;;4994341;28;20726;-71
2023/03/04 00:27:29;;;;;;;7.90;1.40;;;5.20;99.90;;;;;;5015445;28;20037;-71
2023/03/04 00:29:56;;;;;;;16.90;1.90;;;5.20;99.90;;;;;;5003359;28;20080;-70
2023/03/04 00:32:22;;;;;;;18.45;1.98;;;5.20;99.90;;;;;;5009074;28;20045;-71
2023/03/04 00:34:47;;;;;;;18.03;1.60;;;5.20;99.90;;;;;;5002446;28;20137;-71
2023/03/04 00:37:13;;;;;;;15.80;3.20;;;5.20;99.90;;;;;;4999401;28;20120;-71
2023/03/04 00:39:39;;;;;;;15.67;1.83;;;5.20;99.90;;;;;;5005722;28;20099;-71
2023/03/04 00:42:05;;;;;;;12.00;1.80;;;5.10;99.90;;;;;;5000196;28;20285;-70
2023/03/04 00:44:30;;;;;;;14.07;1.87;;;5.10;99.90;;;;;;5006845;28;20414;-71
2023/03/04 00:46:56;;;;;;;16.70;1.80;;;5.10;99.90;;;;;;5003177;28;20176;-71
2023/03/04 00:49:22;;;;;;;12.23;1.67;;;5.10;99.90;;;;;;5006784;28;20042;-70
2023/03/04 00:51:47;;;;;;;12.13;1.10;;;5.10;99.90;;;;;;4999973;28;20118;-71
2023/03/04 00:54:13;;;;;;;16.63;2.30;;;5.10;99.90;;;;;;5016543;28;20052;-70
2023/03/04 00:56:39;;;;;;;10.00;1.50;;;5.10;99.90;;;;;;4996057;28;20041;-71
2023/03/04 00:59:04;;;;;;;12.20;1.40;;;5.10;99.90;;;;;;5001363;28;20052;-71
2023/03/04 01:01:30;;;;;;;15.73;2.07;;;5.20;99.90;;;;;;5002942;28;20602;-71
2023/03/04 01:03:56;;;;;;;8.57;1.27;;;5.20;99.90;;;;;;4997262;28;20520;-71
2023/03/04 01:06:22;;;;;;;13.70;1.60;;;5.20;99.90;;;;;;5003472;28;20052;-71
2023/03/04 01:08:47;;;;;;;15.55;1.30;;;5.20;99.90;;;;;;5000322;28;20049;-71
2023/03/04 01:11:13;;;;;;;15.27;1.83;;;5.20;99.90;;;;;;4985053;28;20811;-71
2023/03/04 01:13:39;;;;;;;17.80;1.47;;;5.20;99.90;;;;;;5007881;28;20098;-71
2023/03/04 01:16:06;;;;;;;15.00;1.53;;;5.20;99.90;;;;;;5003952;28;20509;-71
2023/03/04 01:18:32;;;;;;;11.13;1.35;;;5.20;99.90;;;;;;5001723;28;20094;-71
2023/03/04 01:20:58;;;;;;;16.90;2.00;;;5.20;99.90;;;;;;5007441;28;20121;-71
2023/03/04 01:23:24;;;;;;;12.75;1.73;;;5.20;99.90;;;;;;5008562;28;20053;-71
2023/03/04 01:25:50;;;;;;;7.63;1.10;;;5.20;99.90;;;;;;5021391;28;20091;-71
2023/03/04 01:28:16;;;;;;;13.23;1.50;;;5.20;99.90;;;;;;4989251;28;20058;-71
2023/03/04 01:30:41;;;;;;;10.57;0.83;;;5.20;99.90;;;;;;5006969;28;20555;-71
2023/03/04 01:33:07;;;;;;;10.53;1.20;;;5.20;99.90;;;;;;4992740;28;20515;-71
2023/03/04 01:35:33;;;;;;;7.43;1.03;;;5.20;99.90;;;;;;4992099;28;20045;-71
2023/03/04 01:37:58;;;;;;;7.57;1.23;;;5.20;99.90;;;;;;5002064;28;20045;-70
2023/03/04 01:40:24;;;;;;;13.63;1.67;;;5.20;99.90;;;;;;5011845;28;20040;-71
2023/03/04 01:42:53;;;;;;;12.93;1.07;;;5.10;99.90;;;;;;5012592;28;20069;-71
2023/03/04 01:45:19;;;;;;;11.60;1.23;;;5.10;99.90;;;;;;5010588;28;20103;-71
2023/03/04 01:47:47;;;;;;;12.77;1.60;;;5.10;99.90;;;;;;5009738;28;20045;-71
2023/03/04 01:50:27;;;;;;;16.35;1.67;;;5.10;99.90;;;;;;5008274;28;20049;-71
2023/03/04 01:52:53;;;;;;;12.85;1.30;;;5.10;99.90;;;;;;5010306;28;20113;-71
2023/03/04 01:55:21;;;;;;;14.83;1.77;;;5.10;99.90;;;;;;5001089;28;20124;-71
2023/03/04 01:57:48;;;;;;;15.60;1.30;;;5.00;99.90;;;;;;5009074;28;20042;-70
2023/03/04 02:00:30;;;;;;;14.85;2.67;;;5.10;99.90;;;;;;5001057;28;20038;-70
2023/03/04 02:03:11;;;;;;;9.50;1.30;;;5.10;99.90;;;;;;5001216;28;20053;-71
2023/03/04 02:05:40;;;;;;;12.48;1.10;;;5.10;99.90;;;;;;5004301;28;20783;-71
2023/03/04 02:08:07;;;;;;;11.75;1.40;;;5.10;99.90;;;;;;5008846;28;20482;-71
2023/03/04 02:10:34;;;;;;;9.85;1.35;;;5.10;99.90;;;;;;5002886;28;20148;-70
2023/03/04 02:13:01;;;;;;;12.30;1.20;;;5.10;99.90;;;;;;5007725;28;20053;-71
2023/03/04 02:15:27;;;;;;;10.55;1.50;;;5.10;99.90;;;;;;4981719;28;20445;-71
2023/03/04 02:17:53;;;;;;;14.07;2.00;;;5.10;99.90;;;;;;5001047;28;20037;-70
2023/03/04 02:21:01;;;;;;;7.17;1.70;;;5.00;99.90;;;;;;5010838;28;20460;-70
2023/03/04 02:23:42;;;;;;;12.48;1.98;;;5.00;99.90;;;;;;5006625;28;20280;-70
2023/03/04 02:26:21;;;;;;;11.88;1.65;;;5.00;99.90;;;;;;5007201;28;20108;-71
2023/03/04 02:28:49;;;;;;;11.98;1.88;;;5.00;99.90;;;;;;5001214;28;20139;-71
2023/03/04 02:31:22;;;;;;;13.10;1.70;;;4.90;99.90;;;;;;4992578;28;20504;-71
2023/03/04 02:33:48;;;;;;;9.80;1.38;;;4.90;99.90;;;;;;5007109;28;20044;-71
2023/03/04 02:36:14;;;;;;;9.77;2.05;;;4.90;99.90;;;;;;5004317;28;20038;-71
2023/03/04 02:38:40;;;;;;;12.73;2.00;;;4.90;99.90;;;;;;4991865;28;20116;-71
2023/03/04 02:41:10;;;;;;;11.70;1.75;;;4.90;99.90;;;;;;4984773;28;20030;-71
2023/03/04 02:43:36;;;;;;;13.50;1.85;;;4.90;99.90;;;;;;4997570;28;20046;-71
2023/03/04 02:46:02;;;;;;;15.67;1.83;;;4.90;99.90;;;;;;5017735;28;20037;-71
2023/03/04 02:48:27;;;;;;;13.23;2.23;;;4.90;99.90;;;;;;4979119;28;20034;-71
2023/03/04 02:50:53;;;;;;;12.43;2.40;;;4.90;99.90;;;;;;5004047;28;20041;-71
2023/03/04 02:53:20;;;;;;;14.38;2.20;;;4.80;99.90;;;;;;5009613;28;20606;-71
2023/03/04 02:55:47;;;;;;;13.75;1.85;;;4.80;99.90;;;;;;5003377;28;20088;-71
2023/03/04 02:58:13;;;;;;;11.57;1.80;;;4.80;99.90;;;;;;4999572;28;20076;-70
2023/03/04 03:00:39;;;;;;;9.50;1.38;;;4.90;99.90;;;;;;5005807;28;20462;-70
2023/03/04 03:03:05;;;;;;;9.48;1.40;;;4.80;99.90;;;;;;5003319;28;20056;-71
2023/03/04 03:05:32;;;;;;;8.95;1.30;;;4.80;99.90;;;;;;5005223;28;20045;-71
2023/03/04 03:07:58;;;;;;;10.23;1.33;;;4.90;99.90;;;;;;5001554;28;20042;-71
2023/03/04 03:10:25;;;;;;;11.63;1.60;;;4.90;99.90;;;;;;5011059;28;20030;-71
2023/03/04 03:12:51;;;;;;;13.63;1.42;;;4.90;99.90;;;;;;5000648;28;20045;-70
2023/03/04 03:15:17;;;;;;;13.07;1.10;;;4.90;99.90;;;;;;5010817;28;20068;-71
2023/03/04 03:17:43;;;;;;;10.15;1.52;;;4.90;99.90;;;;;;5005672;28;20437;-70
2023/03/04 03:20:11;;;;;;;12.20;1.70;;;4.90;99.90;;;;;;5010630;28;20041;-71
2023/03/04 03:22:37;;;;;;;10.60;1.15;;;4.90;99.90;;;;;;4997167;28;20046;-71
2023/03/04 03:25:03;;;;;;;8.73;1.37;;;4.90;99.90;;;;;;5005027;28;20676;-70
2023/03/04 03:27:29;;;;;;;10.82;1.17;;;4.90;99.90;;;;;;5015494;28;20867;-70
2023/03/04 03:29:55;;;;;;;11.10;1.40;;;4.90;99.90;;;;;;5006722;28;20102;-70
2023/03/04 03:32:20;;;;;;;12.17;1.23;;;4.90;99.90;;;;;;4987030;28;20046;-70
2023/03/04 03:34:46;;;;;;;13.03;1.33;;;4.90;99.90;;;;;;5002627;28;20042;-71
2023/03/04 03:37:12;;;;;;;9.77;1.87;;;4.90;99.90;;;;;;4988368;28;20465;-71
2023/03/04 03:39:38;;;;;;;11.20;1.70;;;4.90;99.90;;;;;;5002819;28;20513;-70
2023/03/04 03:42:04;;;;;;;11.20;1.70;;;4.90;99.90;;;;;;4995955;28;20287;-70
2023/03/04 03:44:30;;;;;;;10.57;1.40;;;4.90;99.90;;;;;;5001498;28;20041;-70
2023/03/04 03:46:55;;;;;;;8.33;1.20;;;4.90;99.90;;;;;;5009366;28;20041;-70
2023/03/04 03:49:21;;;;;;;9.27;1.20;;;4.90;99.90;;;;;;5011234;28;20079;-70
2023/03/04 03:51:47;;;;;;;16.53;1.60;;;4.90;99.90;;;;;;4991495;28;20133;-71
2023/03/04 03:54:12;;;;;;;9.10;1.50;;;4.90;99.90;;;;;;5003681;28;20378;-70
2023/03/04 03:56:38;;;;;;;8.00;1.40;;;5.00;99.90;;;;;;5023442;28;20049;-71
2023/03/04 03:59:04;;;;;;;13.23;1.67;;;5.00;99.90;;;;;;5003838;28;20494;-71
2023/03/04 04:01:29;;;;;;;7.67;1.10;;;5.00;99.90;;;;;;5011916;28;20038;-71
2023/03/04 04:03:55;;;;;;;11.53;1.73;;;5.00;99.90;;;;;;5003141;28;20421;-71
2023/03/04 04:06:21;;;;;;;11.73;2.33;;;5.00;99.90;;;;;;5007913;28;20045;-71
2023/03/04 04:08:47;;;;;;;8.33;1.67;;;5.00;99.90;;;;;;4990856;28;20053;-71
2023/03/04 04:11:12;;;;;;;9.90;1.67;;;5.00;99.90;;;;;;5004365;28;20057;-71
2023/03/04 04:13:38;;;;;;;6.70;1.00;;;5.00;99.90;;;;;;5009590;28;20740;-71
2023/03/04 04:16:04;;;;;;;7.70;1.30;;;5.00;99.90;;;;;;5020321;28;20042;-71
2023/03/04 04:18:30;;;;;;;10.02;1.00;;;5.00;99.90;;;;;;5003456;28;20077;-71
2023/03/04 04:20:56;;;;;;;5.53;1.07;;;5.10;99.90;;;;;;4997425;28;20461;-71
2023/03/04 04:23:22;;;;;;;8.27;0.80;;;5.10;99.90;;;;;;5002920;28;20049;-71
2023/03/04 04:25:48;;;;;;;6.40;1.35;;;5.10;99.90;;;;;;5000859;28;20117;-71
2023/03/04 04:28:13;;;;;;;10.43;0.87;;;5.10;99.90;;;;;;5001507;28;20904;-70
2023/03/04 04:30:39;;;;;;;8.57;1.60;;;5.10;99.90;;;;;;5004098;28;20041;-70
2023/03/04 04:33:05;;;;;;;9.03;1.33;;;5.10;99.90;;;;;;4984642;28;20056;-70
2023/03/04 04:35:33;;;;;;;8.53;0.80;;;5.10;99.90;;;;;;5000421;28;20335;-70
2023/03/04 04:37:58;;;;;;;7.32;0.60;;;5.10;99.90;;;;;;4996534;28;20045;-71
2023/03/04 04:40:24;;;;;;;13.77;0.90;;;5.10;99.90;;;;;;5004867;28;20520;-71
2023/03/04 04:42:50;;;;;;;5.43;0.50;;;5.10;99.90;;;;;;5002015;28;20052;-71
2023/03/04 04:45:15;;;;;;;9.97;1.83;;;5.10;99.90;;;;;;4997807;28;20038;-70
2023/03/04 04:47:41;;;;;;;6.03;0.73;;;5.10;99.90;;;;;;5007160;28;20052;-70
2023/03/04 04:50:08;;;;;;;9.03;0.60;;;5.00;99.90;;;;;;5003431;28;20489;-71
2023/03/04 04:52:33;;;;;;;8.85;0.80;;;5.10;99.90;;;;;;5002718;28;20048;-71
2023/03/04 04:54:59;;;;;;;5.63;1.00;;;5.00;99.90;;;;;;4995323;28;20046;-70
2023/03/04 04:57:25;;;;;;;6.87;0.70;;;5.00;99.90;;;;;;5007784;28;20525;-71
2023/03/04 04:59:50;;;;;;;5.10;0.60;;;5.00;99.90;;;;;;5009135;28;20034;-70
2023/03/04 05:02:16;;;;;;;7.47;0.90;;;5.00;99.90;;;;;;5003121;28;20048;-70
2023/03/04 05:04:42;;;;;;;7.00;0.60;;;5.10;99.90;;;;;;5002826;28;20097;-70
2023/03/04 05:07:07;;;;;;;9.67;0.60;;;5.10;99.90;;;;;;4982378;28;20046;-70
2023/03/04 05:09:33;;;;;;;9.43;0.80;;;5.10;99.90;;;;;;4991141;28;20049;-71
2023/03/04 05:11:59;;;;;;;5.90;0.60;;;5.10;99.90;;;;;;5024959;28;20759;-71
2023/03/04 05:14:24;;;;;;;5.20;0.63;;;5.10;99.90;;;;;;4995272;28;20081;-71
2023/03/04 05:16:51;;;;;;;4.80;0.70;;;5.10;99.90;;;;;;5007049;28;20041;-71
2023/03/04 05:19:18;;;;;;;6.10;1.02;;;5.10;99.90;;;;;;5005775;28;20583;-71
2023/03/04 05:21:44;;;;;;;5.15;0.80;;;5.00;99.90;;;;;;5008621;28;20076;-71
2023/03/04 05:24:10;;;;;;;9.83;0.73;;;4.80;99.90;;;;;;5008132;28;20049;-70
2023/03/04 05:26:35;;;;;;;6.45;0.75;;;4.70;99.90;;;;;;5008819;28;20052;-70
2023/03/04 05:29:01;;;;;;;6.73;0.80;;;4.70;99.90;;;;;;5006192;28;20045;-71
2023/03/04 05:31:27;;;;;;;7.37;0.87;;;4.70;99.90;;;;;;5009234;28;20125;-71
2023/03/04 05:33:53;;;;;;;7.57;0.83;;;4.60;99.90;;;;;;5008849;28;20361;-71
2023/03/04 05:36:20;;;;;;;9.30;0.80;;;4.60;99.90;;;;;;4989728;28;20477;-71
2023/03/04 05:38:46;;;;;;;6.32;0.60;;;4.60;99.90;;;;;;5002142;28;20042;-71
2023/03/04 05:41:11;;;;;;;5.23;0.50;;;4.60;99.90;;;;;;5009020;28;20175;-70
2023/03/04 05:43:41;;;;;;;6.10;0.70;;;4.60;99.90;;;;;;4989316;28;20038;-70
2023/03/04 05:46:12;;;;;;;5.28;1.17;;;4.70;99.90;;;;;;5000928;28;20060;-70
2023/03/04 05:48:37;;;;;;;6.75;0.60;;;4.70;99.90;;;;;;5006640;28;20124;-70
2023/03/04 05:51:03;;;;;;;8.50;0.80;;;4.70;99.90;;;;;;5007120;28;20130;-70
2023/03/04 05:53:29;;;;;;;8.23;0.97;;;4.70;99.90;;;;;;5011551;28;20400;-71
2023/03/04 05:55:55;;;;;;;7.23;1.50;;;4.80;99.90;;;;;;4974159;28;20041;-71
2023/03/04 05:58:21;;;;;;;7.72;1.02;;;4.80;99.90;;;;;;5012983;28;20084;-71
2023/03/04 06:00:47;;;;;;;4.72;0.60;;;4.80;99.90;;;;;;4998234;28;20033;-71
2023/03/04 06:03:17;;;;;;;7.03;1.10;;;4.70;99.90;;;;;;4993889;28;20060;-70
2023/03/04 06:05:43;;;;;;;7.70;0.90;;;4.70;99.90;;;;;;4983439;28;20042;-70
2023/03/04 06:08:11;;;;;;;6.37;0.87;;;4.70;99.90;;;;;;4992881;28;20716;-70
2023/03/04 06:10:38;;;;;;;8.95;0.80;;;4.60;99.90;;;;;;4977357;28;20041;-71
2023/03/04 06:13:05;;;;;;;8.02;0.70;;;4.60;99.90;;;;;;5005277;28;20048;-70
2023/03/04 06:15:31;;;;;;;11.60;0.80;;;4.60;99.90;;;;;;4981646;28;20128;-70
2023/03/04 06:17:56;;;;;;;12.10;1.00;;;4.60;99.90;;;;;;5005193;28;20076;-70
2023/03/04 06:20:22;;;;;;;7.10;1.17;;;4.70;99.90;;;;;;4999814;28;20037;-71
2023/03/04 06:22:48;;;;;;;10.23;0.90;;;4.70;99.90;;;;;;4992740;28;20042;-70
2023/03/04 06:25:14;;;;;;;7.80;1.23;;;4.70;99.90;;;;;;5000127;28;20037;-71
2023/03/04 06:27:40;;;;;;;7.65;0.80;;;4.80;99.90;;;;;;5007221;28;20057;-71
2023/03/04 06:30:06;;;;;;;9.90;0.80;;;4.90;99.90;;;;;;5025121;28;20065;-71
2023/03/04 06:32:32;;;;;;;13.15;1.40;;;4.90;99.90;;;;;;5006001;28;20049;-71
2023/03/04 06:34:58;;;;;;;8.53;0.90;;;4.90;99.90;;;;;;4991899;28;20100;-71
2023/03/04 06:37:23;;;;;;;15.87;1.87;;;4.90;99.90;;;;;;5007574;28;20045;-71
2023/03/04 06:39:49;;;;;;;11.13;1.40;;;5.00;99.90;;;;;;5006120;28;20042;-71
2023/03/04 06:42:15;;;;;;;10.63;1.60;;;5.00;99.90;;;;;;4993907;28;20073;-71
2023/03/04 06:44:41;;;;;;;8.43;1.33;;;4.90;99.90;;;;;;5018186;28;20375;-71
2023/03/04 06:47:07;;;;;;;8.63;1.00;;;5.00;99.90;;;;;;4999867;28;20056;-70
2023/03/04 06:49:33;;;;;;;9.10;0.88;;;5.00;99.90;;;;;;5020362;28;20042;-70
2023/03/04 06:51:58;;;;;;;4.87;0.57;;;4.90;99.90;;;;;;5023737;28;20094;-70
2023/03/04 06:54:24;;;;;;;8.07;0.63;;;4.90;99.90;;;;;;5001090;28;20565;-70
2023/03/04 06:56:50;;;;;;;6.60;0.63;;;5.00;99.90;;;;;;5005594;28;20040;-71
2023/03/04 06:59:15;;;;;;;6.23;1.10;;;4.90;99.90;;;;;;5002771;28;20117;-70
2023/03/04 07:01:41;;;;;;;7.07;0.73;;;4.90;99.90;;;;;;4996901;28;20045;-70
2023/03/04 07:04:07;;;;;;;8.00;0.97;;;4.90;99.90;;;;;;4992041;28;20069;-71
2023/03/04 07:06:33;;;;;;;8.70;1.00;;;4.90;99.90;;;;;;4993057;28;20042;-71
2023/03/04 07:08:59;;;;;;;5.70;0.90;;;4.90;99.90;;;;;;5002385;28;20049;-70
2023/03/04 07:11:25;;;;;;;8.03;1.13;;;5.00;99.90;;;;;;5007491;28;20367;-70
2023/03/04 07:13:51;;;;;;;10.63;1.02;;;5.00;99.90;;;;;;4992122;28;20053;-70
2023/03/04 07:16:19;;;;;;;8.55;1.40;;;5.00;99.90;;;;;;4995571;28;20086;-71
2023/03/04 07:18:46;;;;;;;11.65;1.80;;;5.10;99.90;;;;;;5011065;28;20037;-71
2023/03/04 07:21:13;;;;;;;6.55;1.35;;;5.10;99.90;;;;;;5001797;28;20117;-71
2023/03/04 07:23:39;;;;;;;10.82;2.08;;;5.10;99.90;;;;;;4984855;28;20041;-71
2023/03/04 07:26:05;;;;;;;12.98;1.92;;;5.20;99.90;;;;;;5005361;28;20053;-71
2023/03/04 07:28:31;;;;;;;8.15;1.40;;;5.30;99.90;;;;;;5002306;28;20124;-71
2023/03/04 07:31:09;;;;;;;7.88;1.40;;;5.30;99.90;;;;;;5007324;28;20050;-70
2023/03/04 07:33:35;;;;;;;6.88;0.90;;;5.30;99.90;;;;;;5009583;28;20040;-70
2023/03/04 07:36:00;;;;;;;7.27;1.20;;;5.40;99.90;;;;;;5006320;28;20046;-70
2023/03/04 07:38:26;;;;;;;9.77;1.20;;;5.40;99.90;;;;;;4989338;28;20041;-70
2023/03/04 07:40:56;;;;;;;11.53;2.17;;;5.40;99.90;;;;;;5007830;28;20037;-70
2023/03/04 07:43:22;;;;;;;12.38;2.55;;;5.40;99.90;;;;;;5010480;28;20513;-70
2023/03/04 07:45:48;;;;;;;5.73;0.63;;;5.50;99.90;;;;;;5003471;28;20157;-70
2023/03/04 07:48:13;;;;;;;6.23;0.83;;;5.50;99.90;;;;;;4977357;28;20045;-70
2023/03/04 07:50:39;;;;;;;7.57;0.80;;;5.50;99.90;;;;;;5006498;28;20139;-70
2023/03/04 07:53:05;;;;;;;9.23;1.37;;;5.50;99.90;;;;;;5007306;28;20056;-70
2023/03/04 07:55:30;;;;;;;5.90;0.73;;;5.60;99.90;;;;;;5005282;28;20045;-70
2023/03/04 07:57:56;;;;;;;7.20;0.60;;;5.60;99.90;;;;;;5008583;28;20049;-71
2023/03/04 08:00:22;;;;;;;8.52;0.70;;;5.60;99.90;;;;;;4997395;28;20046;-70
2023/03/04 08:02:48;;;;;;;5.47;0.73;;;5.60;99.90;;;;;;4999727;28;20112;-70
2023/03/04 08:05:14;;;;;;;9.25;1.20;;;5.60;99.90;;;;;;5004192;28;20049;-70
2023/03/04 08:07:40;;;;;;;10.00;0.85;;;5.60;99.90;;;;;;4987556;28;20049;-70
2023/03/04 08:10:07;;;;;;;11.77;1.40;;;5.70;99.90;;;;;;4988425;28;20046;-71
2023/03/04 08:12:34;;;;;;;13.80;1.17;;;5.70;99.90;;;;;;4992264;28;20587;-71
2023/03/04 08:15:00;;;;;;;7.53;1.55;;;5.80;99.90;;;;;;5008302;28;20049;-71
2023/03/04 08:17:28;;;;;;;11.33;1.00;;;5.80;99.90;;;;;;4989851;28;20052;-70
2023/03/04 08:19:54;;;;;;;11.95;1.20;;;5.90;99.90;;;;;;4989829;28;20049;-70
2023/03/04 08:22:20;;;;;;;11.07;1.45;;;6.00;99.90;;;;;;5005693;28;20034;-70
2023/03/04 08:24:46;;;;;;;8.40;0.80;;;6.10;99.90;;;;;;5009119;28;20119;-70
2023/03/04 08:27:11;;;;;;;7.10;1.00;;;6.20;99.90;;;;;;4980467;28;20781;-70
2023/03/04 08:29:37;;;;;;;4.23;0.90;;;6.30;99.90;;;;;;5004272;28;20053;-70
2023/03/04 08:32:03;;;;;;;6.57;1.00;;;6.30;99.90;;;;;;4991664;28;20072;-71
2023/03/04 08:34:30;;;;;;;6.22;0.77;;;6.40;99.90;;;;;;4995170;28;20284;-71
2023/03/04 08:36:56;;;;;;;6.00;1.08;;;6.40;99.90;;;;;;4994259;28;20506;-71
2023/03/04 08:39:21;;;;;;;6.47;0.93;;;6.40;99.90;;;;;;4997304;28;20101;-71
2023/03/04 08:41:48;;;;;;;8.47;0.97;;;6.40;99.90;;;;;;4996456;28;20120;-71
2023/03/04 08:44:14;;;;;;;6.30;0.80;;;6.40;99.90;;;;;;4993556;28;20088;-71
2023/03/04 08:46:41;;;;;;;7.13;1.20;;;6.40;99.90;;;;;;4990596;28;20045;-71
2023/03/04 08:49:09;;;;;;;8.10;0.80;;;6.40;99.90;;;;;;4995568;28;20096;-71
2023/03/04 08:51:34;;;;;;;12.20;1.45;;;6.50;99.90;;;;;;5005012;28;20120;-71
2023/03/04 08:54:01;;;;;;;17.03;2.03;;;6.50;99.90;;;;;;5011099;28;20076;-71
2023/03/04 08:56:28;;;;;;;13.25;2.10;;;6.50;99.90;;;;;;4998569;28;20049;-71
2023/03/04 08:58:53;;;;;;;14.37;1.73;;;6.50;99.90;;;;;;4980604;28;20048;-71
2023/03/04 09:01:19;;;;;;;16.50;2.33;;;6.50;99.90;;;;;;4989616;28;20367;-71
2023/03/04 09:03:45;;;;;;;18.30;2.20;;;6.50;99.90;;;;;;5003022;28;20049;-71
2023/03/04 09:06:16;;;;;;;12.53;1.57;;;6.60;99.90;;;;;;4995077;28;20125;-71
2023/03/04 09:08:42;;;;;;;15.98;2.00;;;6.60;99.90;;;;;;4999549;28;20039;-71
2023/03/04 09:11:08;;;;;;;20.13;1.98;;;6.60;99.90;;;;;;4969641;28;20046;-71
2023/03/04 09:13:34;;;;;;;18.97;1.93;;;6.60;99.90;;;;;;4985894;28;20065;-71
2023/03/04 09:16:00;;;;;;;16.57;2.30;;;6.50;99.90;;;;;;4996738;28;20439;-71
2023/03/04 09:18:26;;;;;;;11.40;1.73;;;6.50;99.90;;;;;;5007962;28;20053;-71
2023/03/04 09:20:53;;;;;;;13.35;1.95;;;6.40;99.90;;;;;;4980461;28;20161;-71
2023/03/04 09:23:19;;;;;;;15.25;2.53;;;6.40;99.90;;;;;;5002802;28;20052;-71
2023/03/04 09:25:46;;;;;;;18.58;2.65;;;6.30;99.90;;;;;;5010092;28;20042;-71
2023/03/04 09:28:12;;;;;;;13.63;1.58;;;6.30;99.90;;;;;;5007084;28;20072;-71
2023/03/04 09:30:39;;;;;;;14.32;2.00;;;6.40;99.90;;;;;;5009835;28;20435;-71
2023/03/04 09:33:05;;;;;;;11.77;2.00;;;6.40;99.90;;;;;;5004561;28;20053;-71
2023/03/04 09:35:31;;;;;;;14.57;1.97;;;6.50;99.90;;;;;;4997217;28;20045;-71
2023/03/04 09:37:57;;;;;;;14.63;2.63;;;6.50;99.90;;;;;;5006387;28;20044;-71
2023/03/04 09:40:31;;;;;;;21.13;2.35;;;6.50;99.90;;;;;;4981851;28;20452;-71
2023/03/04 09:43:04;;;;;;;19.67;2.60;;;6.60;99.90;;;;;;5005561;28;20050;-71
2023/03/04 09:45:53;;;;;;;19.35;2.38;;;6.70;99.90;;;;;;4998514;28;20048;-71
2023/03/04 09:48:26;;;;;;;17.77;2.75;;;6.70;99.90;;;;;;5006205;28;20049;-71
2023/03/04 09:51:13;;;;;;;23.92;3.67;;;6.70;99.90;;;;;;4998505;28;20057;-71
2023/03/04 09:53:56;;;;;;;15.38;2.60;;;6.70;99.90;;;;;;4997299;28;20049;-71
2023/03/04 09:56:22;;;;;;;16.05;2.20;;;6.80;99.90;;;;;;5006539;28;20041;-71
2023/03/04 09:59:12;;;;;;;16.50;2.80;;;6.80;99.90;;;;;;5015693;28;20033;-71
2023/03/04 10:01:56;;;;;;;20.63;3.50;;;6.90;99.90;;;;;;5018163;28;20080;-71
2023/03/04 10:04:53;;;;;;;17.45;2.47;;;6.90;99.90;;;;;;5002660;28;20171;-71
2023/03/04 10:07:25;;;;;;;15.25;2.08;;;7.00;99.90;;;;;;4983524;28;20092;-71
2023/03/04 10:09:59;;;;;;;12.57;2.10;;;7.00;99.90;;;;;;5005625;28;20053;-71
2023/03/04 10:12:29;;;;;;;13.43;2.10;;;7.00;99.90;;;;;;5011407;28;20049;-71
2023/03/04 10:15:16;;;;;;;11.27;1.38;;;7.10;99.90;;;;;;5020117;28;20099;-71
2023/03/04 10:17:45;;;;;;;14.30;1.63;;;7.10;99.90;;;;;;5017447;28;20049;-71
2023/03/04 10:20:20;;;;;;;15.10;1.92;;;7.20;99.90;;;;;;4999094;28;20038;-71
2023/03/04 10:22:48;;;;;;;13.98;1.95;;;7.20;99.90;;;;;;5019506;28;20482;-71
2023/03/04 10:25:27;;;;;;;15.00;1.58;;;7.20;99.90;;;;;;5001511;28;20047;-71
2023/03/04 10:27:55;;;;;;;6.22;1.27;;;7.10;99.90;;;;;;5003531;28;20505;-71
2023/03/04 10:30:27;;;;;;;10.77;1.13;;;7.10;99.90;;;;;;5002239;28;20129;-71
2023/03/04 10:32:54;;;;;;;7.47;0.90;;;7.10;99.90;;;;;;5006144;28;20049;-71
2023/03/04 10:35:25;;;;;;;8.77;1.05;;;7.20;99.90;;;;;;5000191;28;20186;-71
2023/03/04 10:37:51;;;;;;;8.90;1.33;;;7.20;99.90;;;;;;4989680;28;20056;-71
2023/03/04 10:40:26;;;;;;;4.95;1.00;;;7.20;99.90;;;;;;5003654;28;20069;-71
2023/03/04 10:42:53;;;;;;;5.05;0.52;;;7.30;99.90;;;;;;5029825;28;20052;-71
2023/03/04 10:45:26;;;;;;;8.73;1.27;;;7.40;99.90;;;;;;4979628;28;20045;-71
2023/03/04 10:47:56;;;;;;;7.78;1.00;;;7.30;99.90;;;;;;5012326;28;20205;-71
2023/03/04 10:50:26;;;;;;;9.20;1.15;;;7.50;99.90;;;;;;5017189;28;20401;-71
2023/03/04 10:52:54;;;;;;;5.50;0.82;;;7.70;99.90;;;;;;5005390;28;20048;-71
2023/03/04 10:55:49;;;;;;;6.93;0.60;;;7.90;99.90;;;;;;5002894;28;20806;-71
2023/03/04 10:58:19;;;;;;;5.18;0.57;;;7.90;99.90;;;;;;5001081;28;20505;-71
2023/03/04 11:00:59;;;;;;;9.32;1.20;;;7.80;99.90;;;;;;4994572;28;20085;-71
2023/03/04 11:03:27;;;;;;;11.55;0.93;;;7.70;99.90;;;;;;5006558;28;20053;-71
2023/03/04 11:06:10;;;;;;;9.38;1.15;;;7.70;99.90;;;;;;4999311;28;20101;-71
2023/03/04 11:08:40;;;;;;;8.63;0.82;;;7.70;99.90;;;;;;4998783;28;20045;-71
2023/03/04 11:11:33;;;;;;;7.28;1.08;;;7.80;99.90;;;;;;4991937;28;20038;-71
2023/03/04 11:14:03;;;;;;;6.97;0.50;;;8.00;99.90;;;;;;4996697;28;20064;-71
2023/03/04 11:16:31;;;;;;;5.15;0.60;;;8.10;99.90;;;;;;5013419;28;20474;-72
2023/03/04 11:19:08;;;;;;;5.65;0.73;;;8.20;99.90;;;;;;5025623;28;20041;-72
2023/03/04 11:21:38;;;;;;;6.32;1.38;;;8.10;99.90;;;;;;4999729;28;20080;-72
2023/03/04 11:24:13;;;;;;;6.50;1.05;;;8.10;99.90;;;;;;5034425;28;20126;-72
2023/03/04 11:27:01;;;;;;;9.60;1.30;;;8.00;99.90;;;;;;5017296;28;20045;-72
2023/03/04 11:29:41;;;;;;;13.13;1.40;;;7.90;99.90;;;;;;5004838;28;20049;-72
2023/03/04 11:32:21;;;;;;;11.30;1.58;;;7.80;99.90;;;;;;5015092;28;20139;-72
2023/03/04 11:34:52;;;;;;;10.65;1.42;;;7.80;99.90;;;;;;5002739;28;20467;-72
2023/03/04 11:37:43;;;;;;;10.82;1.10;;;7.70;99.90;;;;;;5000241;28;20053;-72
2023/03/04 11:40:15;;;;;;;9.68;1.60;;;7.80;99.90;;;;;;5006516;28;20056;-72
2023/03/04 11:42:43;;;;;;;9.50;1.80;;;7.80;99.90;;;;;;5011969;28;20041;-72
2023/03/04 11:45:42;;;;;;;12.77;1.83;;;7.80;99.90;;;;;;4991077;28;20253;-72
2023/03/04 11:48:28;;;;;;;14.75;2.00;;;7.90;99.90;;;;;;4992183;28;20072;-72
2023/03/04 11:51:09;;;;;;;14.07;1.88;;;8.20;99.90;;;;;;5001204;28;20053;-72
2023/03/04 11:53:56;;;;;;;12.43;1.70;;;8.30;99.90;;;;;;5017695;28;20057;-72
2023/03/04 11:56:43;;;;;;;9.57;1.65;;;8.30;99.90;;;;;;5000962;28;20054;-72
2023/03/04 11:59:19;;;;;;;13.15;1.15;;;8.20;99.90;;;;;;4992136;28;20045;-72
2023/03/04 12:02:09;;;;;;;9.52;1.45;;;8.10;99.90;;;;;;4991189;28;20048;-72
2023/03/04 12:05:13;;;;;;;15.30;1.60;;;8.10;99.90;;;;;;4991334;28;20093;-72
2023/03/04 12:07:46;;;;;;;8.40;1.05;;;8.10;99.90;;;;;;4996607;28;20045;-72
2023/03/04 12:10:32;;;;;;;8.57;1.75;;;8.20;99.90;;;;;;4980776;28;20046;-72
2023/03/04 12:13:49;;;;;;;10.48;1.60;;;8.30;99.90;;;;;;4994807;28;20049;-72
2023/03/04 12:16:33;;;;;;;;;;;8.40;99.90;;;;;;4991199;28;20413;-72
2023/03/04 12:19:30;;;;;;;12.00;1.63;;;8.40;99.90;;;;;;5013676;28;19967;-72
2023/03/04 12:22:12;;;;;;;13.35;1.83;;;8.30;99.90;;;;;;5007419;28;20046;-72
2023/03/04 12:24:54;;;;;;;9.02;1.58;;;8.40;99.90;;;;;;5015071;28;20044;-72
2023/03/04 12:28:01;;;;;;;12.73;1.52;;;8.30;99.90;;;;;;5013352;28;20045;-72
2023/03/04 12:30:40;;;;;;;14.93;1.45;;;8.20;99.90;;;;;;4978855;28;20041;-72
2023/03/04 12:33:11;;;;;;;10.15;1.70;;;8.00;99.90;;;;;;5001196;28;20040;-72
2023/03/04 12:36:00;;;;;;;14.43;1.85;;;8.00;99.90;;;;;;4991148;28;20063;-72
2023/03/04 12:38:44;;;;;;;18.05;2.35;;;8.00;99.90;;;;;;5002646;28;20103;-72
2023/03/04 12:41:36;;;;;;;14.65;2.50;;;8.00;99.90;;;;;;5010714;28;20033;-72
2023/03/04 12:44:17;;;;;;;13.93;2.63;;;8.00;99.90;;;;;;4986814;28;20041;-72
2023/03/04 12:47:17;;;;;;;13.00;2.25;;;8.00;99.90;;;;;;4996970;28;20056;-72
2023/03/04 12:49:58;;;;;;;15.13;2.05;;;7.90;99.90;;;;;;4986136;28;20061;-71
2023/03/04 12:53:04;;;;;;;11.57;1.88;;;8.00;99.90;;;;;;5003802;28;20450;-71
2023/03/04 12:55:38;;;;;;;16.33;2.15;;;8.00;97.20;;;;;;5008840;28;20038;-71
2023/03/04 12:58:12;;;;;;;12.13;2.00;;;7.90;96.70;;;;;;5022043;28;20494;-71
2023/03/04 13:01:17;;;;;;;12.02;2.25;;;7.90;97.00;;;;;;5008003;28;20098;-69
2023/03/04 13:03:52;;;;;;;14.43;1.92;;;8.00;97.50;;;;;;4990135;28;20445;-70
2023/03/04 13:06:20;;;;;;;14.30;2.33;;;8.00;96.90;;;;;;4988141;28;20050;-70